Grand Rapids, MI (49502)

3:42 PM EDT on August 02, 2015 (GMT -0400)
WXGR.NET | | Change Station
CLOSE
Current Station
Personal Weather Station
Location: Grand Rapids, MI
Elevation: 756 ft
Nearby Weather Stations

Elev 756 ft 42.96 °N, 85.63 °W | Updated 12 seconds ago

Mostly Cloudy
Mostly Cloudy
93.4 °F
Feels Like 92 °F
N
3.4
Wind Variable Wind from West
Gusts 3.4 mph

Today
High -- | Low -- °F
--% Chance of Precip.
Yesterday
High -- | Low -- °F
Precip. -- in
6:34 AM 9:02 PM
Waning Gibbous, 92% visible
Pressure 29.72 in
Visibility 9.0 miles
Clouds Scattered Clouds 4600 ft
Mostly Cloudy 6500 ft
Mostly Cloudy 22000 ft
Heat Index 92 °F
Dew Point 55 °F
Humidity 28%
Rainfall 0.00 in
Snow Depth Not available.
UV 5 out of 12
Pollen 7.90 out of 12
Air Quality Not available.
Flu Activity Not available.
METAR KGRR 021853Z 24024G31KT 9SM SCT046TCU BKN065 BKN220 31/18 A2973 RMK AO2 PK WND 24031/1844 SLP063 TCU NE PRESENT WX VCSH NE T03110178

More Conditions Fewer Conditions

Pressure 29.72 in
Visibility 9.0 miles
Clouds Scattered Clouds 4600 ft
Mostly Cloudy 6500 ft
Mostly Cloudy 22000 ft
Heat Index 92 °F
Dew Point 55 °F
Humidity 28%
Rainfall 0.00 in
Snow Depth Not available.
UV 5 out of 12
Pollen 7.90 out of 12
Air Quality Not available.
Flu Activity Not available.
METAR KGRR 021853Z 24024G31KT 9SM SCT046TCU BKN065 BKN220 31/18 A2973 RMK AO2 PK WND 24031/1844 SLP063 TCU NE PRESENT WX VCSH NE T03110178

More Conditions Fewer Conditions

10-Day Weather Forecast

×

Almanac

Astronomy

Aug. 02, 2015 Rise Set
Actual Time
Civil Twilight
Nautical Twilight
Astronomical Twilight
Moon
Length of Visible Light
Length of Day
Tomorrow will be .
, % of the Moon is Illuminated

Today's Extremes

State Highs State Lows

Community

WunderPhotos

Upload Photos

1,843,345 photos uploaded!

WunderBlogs® & News

Nearby

Air Quality

  Air Quality AQ Index Pollutant
Not available.

Snow Depth

Station Depth Elevation

Earthquake Activity

City Distance Mag. Time & Date
Minimum magnitude displayed is 2.5.

Coastal Water Temperatures

Place Temperature

Stations

Nearby Weather Stations

Station Location Temp. Windchill Dew Point Humidity Wind Precip. Elev Updated Type